sensor_id;sensor_type;location;lat;lon;timestamp;P1;durP1;ratioP1;P2;durP2;ratioP2
43529;SDS011;55654;50.966;6.878;2022-11-04T00:01:32;1.20;;;0.67;;
43529;SDS011;55654;50.966;6.878;2022-11-04T00:04:01;2.60;;;0.80;;
43529;SDS011;55654;50.966;6.878;2022-11-04T00:06:27;2.23;;;0.80;;
43529;SDS011;55654;50.966;6.878;2022-11-04T00:08:55;2.17;;;0.70;;
43529;SDS011;55654;50.966;6.878;2022-11-04T00:11:21;3.70;;;1.03;;
43529;SDS011;55654;50.966;6.878;2022-11-04T00:14:06;2.70;;;0.70;;
43529;SDS011;55654;50.966;6.878;2022-11-04T00:16:33;2.40;;;0.87;;
43529;SDS011;55654;50.966;6.878;2022-11-04T00:19:17;2.97;;;0.73;;
43529;SDS011;55654;50.966;6.878;2022-11-04T00:21:44;3.93;;;1.00;;
43529;SDS011;55654;50.966;6.878;2022-11-04T00:24:28;2.37;;;0.60;;
43529;SDS011;55654;50.966;6.878;2022-11-04T00:26:54;2.43;;;1.00;;
43529;SDS011;55654;50.966;6.878;2022-11-04T00:29:39;1.27;;;0.50;;
43529;SDS011;55654;50.966;6.878;2022-11-04T00:32:05;0.93;;;0.50;;
43529;SDS011;55654;50.966;6.878;2022-11-04T00:34:50;3.27;;;1.23;;
43529;SDS011;55654;50.966;6.878;2022-11-04T00:37:18;1.30;;;0.70;;
43529;SDS011;55654;50.966;6.878;2022-11-04T00:39:44;1.53;;;0.70;;
43529;SDS011;55654;50.966;6.878;2022-11-04T00:42:10;1.00;;;0.60;;
43529;SDS011;55654;50.966;6.878;2022-11-04T00:44:36;1.37;;;0.63;;
43529;SDS011;55654;50.966;6.878;2022-11-04T00:47:02;2.63;;;1.10;;
43529;SDS011;55654;50.966;6.878;2022-11-04T00:49:28;3.20;;;0.70;;
43529;SDS011;55654;50.966;6.878;2022-11-04T00:51:54;3.27;;;0.90;;
43529;SDS011;55654;50.966;6.878;2022-11-04T00:54:20;1.87;;;0.80;;
43529;SDS011;55654;50.966;6.878;2022-11-04T00:56:46;2.63;;;1.07;;
43529;SDS011;55654;50.966;6.878;2022-11-04T00:59:13;2.63;;;1.00;;
43529;SDS011;55654;50.966;6.878;2022-11-04T01:01:39;3.10;;;1.10;;
43529;SDS011;55654;50.966;6.878;2022-11-04T01:04:05;1.70;;;0.90;;
43529;SDS011;55654;50.966;6.878;2022-11-04T01:06:31;1.90;;;0.90;;
43529;SDS011;55654;50.966;6.878;2022-11-04T01:08:58;1.90;;;1.07;;
43529;SDS011;55654;50.966;6.878;2022-11-04T01:11:24;3.87;;;0.90;;
43529;SDS011;55654;50.966;6.878;2022-11-04T01:13:54;2.23;;;0.73;;
43529;SDS011;55654;50.966;6.878;2022-11-04T01:16:20;2.63;;;0.73;;
43529;SDS011;55654;50.966;6.878;2022-11-04T01:18:47;3.50;;;0.80;;
43529;SDS011;55654;50.966;6.878;2022-11-04T01:21:13;2.40;;;0.70;;
43529;SDS011;55654;50.966;6.878;2022-11-04T01:23:40;9.00;;;1.20;;
43529;SDS011;55654;50.966;6.878;2022-11-04T01:26:07;1.27;;;0.87;;
43529;SDS011;55654;50.966;6.878;2022-11-04T01:28:34;1.67;;;0.87;;
43529;SDS011;55654;50.966;6.878;2022-11-04T01:31:10;2.23;;;0.97;;
43529;SDS011;55654;50.966;6.878;2022-11-04T01:33:37;1.10;;;0.73;;
43529;SDS011;55654;50.966;6.878;2022-11-04T01:36:04;1.50;;;0.77;;
43529;SDS011;55654;50.966;6.878;2022-11-04T01:38:30;1.67;;;0.70;;
43529;SDS011;55654;50.966;6.878;2022-11-04T01:40:57;1.23;;;0.90;;
43529;SDS011;55654;50.966;6.878;2022-11-04T01:43:39;6.50;;;0.70;;
43529;SDS011;55654;50.966;6.878;2022-11-04T01:46:07;3.27;;;0.80;;
43529;SDS011;55654;50.966;6.878;2022-11-04T01:48:34;2.53;;;0.50;;
43529;SDS011;55654;50.966;6.878;2022-11-04T01:51:00;2.67;;;0.83;;
43529;SDS011;55654;50.966;6.878;2022-11-04T01:53:27;1.83;;;1.30;;
43529;SDS011;55654;50.966;6.878;2022-11-04T01:55:55;1.33;;;0.40;;
43529;SDS011;55654;50.966;6.878;2022-11-04T01:58:22;3.63;;;0.70;;
43529;SDS011;55654;50.966;6.878;2022-11-04T02:00:51;2.90;;;0.90;;
43529;SDS011;55654;50.966;6.878;2022-11-04T02:03:19;3.33;;;0.73;;
43529;SDS011;55654;50.966;6.878;2022-11-04T02:05:45;2.13;;;0.83;;
43529;SDS011;55654;50.966;6.878;2022-11-04T02:08:14;4.00;;;0.80;;
43529;SDS011;55654;50.966;6.878;2022-11-04T02:10:57;2.17;;;0.70;;
43529;SDS011;55654;50.966;6.878;2022-11-04T02:13:23;3.83;;;0.70;;
43529;SDS011;55654;50.966;6.878;2022-11-04T02:16:00;5.30;;;1.13;;
43529;SDS011;55654;50.966;6.878;2022-11-04T02:18:32;5.20;;;1.13;;
43529;SDS011;55654;50.966;6.878;2022-11-04T02:21:05;3.73;;;0.67;;
43529;SDS011;55654;50.966;6.878;2022-11-04T02:31:30;5.53;;;1.33;;
43529;SDS011;55654;50.966;6.878;2022-11-04T02:36:40;8.90;;;1.93;;
43529;SDS011;55654;50.966;6.878;2022-11-04T02:39:27;5.95;;;1.65;;
43529;SDS011;55654;50.966;6.878;2022-11-04T02:44:44;6.03;;;1.47;;
43529;SDS011;55654;50.966;6.878;2022-11-04T02:47:12;3.93;;;1.33;;
43529;SDS011;55654;50.966;6.878;2022-11-04T02:49:53;9.70;;;1.43;;
43529;SDS011;55654;50.966;6.878;2022-11-04T02:52:30;5.63;;;1.43;;
43529;SDS011;55654;50.966;6.878;2022-11-04T02:55:06;6.67;;;1.67;;
43529;SDS011;55654;50.966;6.878;2022-11-04T02:57:34;6.63;;;1.10;;
43529;SDS011;55654;50.966;6.878;2022-11-04T03:00:06;6.30;;;1.10;;
43529;SDS011;55654;50.966;6.878;2022-11-04T03:02:54;6.97;;;1.40;;
43529;SDS011;55654;50.966;6.878;2022-11-04T03:05:20;3.57;;;0.80;;
43529;SDS011;55654;50.966;6.878;2022-11-04T03:07:49;3.43;;;0.80;;
43529;SDS011;55654;50.966;6.878;2022-11-04T03:10:18;7.70;;;1.33;;
43529;SDS011;55654;50.966;6.878;2022-11-04T03:12:54;7.43;;;1.30;;
43529;SDS011;55654;50.966;6.878;2022-11-04T03:15:23;6.20;;;1.20;;
43529;SDS011;55654;50.966;6.878;2022-11-04T03:17:52;5.87;;;1.10;;
43529;SDS011;55654;50.966;6.878;2022-11-04T03:20:20;8.53;;;1.47;;
43529;SDS011;55654;50.966;6.878;2022-11-04T03:22:47;5.83;;;0.80;;
43529;SDS011;55654;50.966;6.878;2022-11-04T03:25:14;3.90;;;1.20;;
43529;SDS011;55654;50.966;6.878;2022-11-04T03:30:10;8.53;;;1.27;;
43529;SDS011;55654;50.966;6.878;2022-11-04T03:35:08;11.73;;;2.70;;
43529;SDS011;55654;50.966;6.878;2022-11-04T03:37:35;7.13;;;1.20;;
43529;SDS011;55654;50.966;6.878;2022-11-04T03:40:01;5.47;;;1.23;;
43529;SDS011;55654;50.966;6.878;2022-11-04T03:42:28;8.10;;;1.70;;
43529;SDS011;55654;50.966;6.878;2022-11-04T03:44:55;15.57;;;1.60;;
43529;SDS011;55654;50.966;6.878;2022-11-04T03:47:22;7.27;;;1.70;;
43529;SDS011;55654;50.966;6.878;2022-11-04T03:49:50;4.87;;;1.47;;
43529;SDS011;55654;50.966;6.878;2022-11-04T03:52:17;6.67;;;1.60;;
43529;SDS011;55654;50.966;6.878;2022-11-04T03:54:46;8.13;;;1.83;;
43529;SDS011;55654;50.966;6.878;2022-11-04T03:57:16;8.97;;;1.20;;
43529;SDS011;55654;50.966;6.878;2022-11-04T03:59:49;7.47;;;1.55;;
43529;SDS011;55654;50.966;6.878;2022-11-04T04:05:08;7.20;;;2.03;;
43529;SDS011;55654;50.966;6.878;2022-11-04T04:07:37;10.50;;;1.70;;
43529;SDS011;55654;50.966;6.878;2022-11-04T04:10:15;6.30;;;1.90;;
43529;SDS011;55654;50.966;6.878;2022-11-04T04:13:06;7.93;;;1.57;;
43529;SDS011;55654;50.966;6.878;2022-11-04T04:15:54;8.93;;;1.53;;
43529;SDS011;55654;50.966;6.878;2022-11-04T04:18:23;5.80;;;1.60;;
43529;SDS011;55654;50.966;6.878;2022-11-04T04:20:51;9.17;;;2.00;;
43529;SDS011;55654;50.966;6.878;2022-11-04T04:23:22;9.10;;;1.60;;
43529;SDS011;55654;50.966;6.878;2022-11-04T04:26:08;7.50;;;1.60;;
43529;SDS011;55654;50.966;6.878;2022-11-04T04:28:54;8.30;;;1.77;;
43529;SDS011;55654;50.966;6.878;2022-11-04T04:31:21;12.93;;;3.63;;
43529;SDS011;55654;50.966;6.878;2022-11-04T04:34:07;10.27;;;2.00;;
43529;SDS011;55654;50.966;6.878;2022-11-04T04:37:18;19.13;;;2.40;;
43529;SDS011;55654;50.966;6.878;2022-11-04T04:39:26;6.53;;;2.33;;
43529;SDS011;55654;50.966;6.878;2022-11-04T04:42:13;15.10;;;3.23;;
43529;SDS011;55654;50.966;6.878;2022-11-04T04:44:57;7.67;;;2.10;;
43529;SDS011;55654;50.966;6.878;2022-11-04T04:47:24;13.07;;;2.73;;
43529;SDS011;55654;50.966;6.878;2022-11-04T04:49:54;7.13;;;1.80;;
43529;SDS011;55654;50.966;6.878;2022-11-04T04:52:21;10.13;;;2.30;;
43529;SDS011;55654;50.966;6.878;2022-11-04T04:54:50;13.67;;;2.43;;
43529;SDS011;55654;50.966;6.878;2022-11-04T04:57:16;12.57;;;3.00;;
43529;SDS011;55654;50.966;6.878;2022-11-04T04:59:42;10.47;;;2.27;;
43529;SDS011;55654;50.966;6.878;2022-11-04T05:02:08;18.17;;;3.93;;
43529;SDS011;55654;50.966;6.878;2022-11-04T05:04:34;9.73;;;2.20;;
43529;SDS011;55654;50.966;6.878;2022-11-04T05:07:00;10.63;;;2.90;;
43529;SDS011;55654;50.966;6.878;2022-11-04T05:09:26;7.70;;;2.60;;
43529;SDS011;55654;50.966;6.878;2022-11-04T05:11:52;19.17;;;4.13;;
43529;SDS011;55654;50.966;6.878;2022-11-04T05:14:20;12.93;;;2.47;;
43529;SDS011;55654;50.966;6.878;2022-11-04T05:16:48;13.50;;;3.03;;
43529;SDS011;55654;50.966;6.878;2022-11-04T05:19:17;7.00;;;2.47;;
43529;SDS011;55654;50.966;6.878;2022-11-04T05:21:43;12.70;;;3.00;;
43529;SDS011;55654;50.966;6.878;2022-11-04T05:24:09;13.77;;;3.50;;
43529;SDS011;55654;50.966;6.878;2022-11-04T05:26:37;5.43;;;2.43;;
43529;SDS011;55654;50.966;6.878;2022-11-04T05:29:04;10.13;;;2.90;;
43529;SDS011;55654;50.966;6.878;2022-11-04T05:31:32;18.53;;;3.90;;
43529;SDS011;55654;50.966;6.878;2022-11-04T05:33:58;12.30;;;3.23;;
43529;SDS011;55654;50.966;6.878;2022-11-04T05:36:24;11.13;;;3.87;;
43529;SDS011;55654;50.966;6.878;2022-11-04T05:38:55;9.83;;;3.03;;
43529;SDS011;55654;50.966;6.878;2022-11-04T05:41:21;7.13;;;2.93;;
43529;SDS011;55654;50.966;6.878;2022-11-04T05:43:51;11.30;;;3.07;;
43529;SDS011;55654;50.966;6.878;2022-11-04T05:46:17;12.83;;;3.87;;
43529;SDS011;55654;50.966;6.878;2022-11-04T05:48:43;13.20;;;2.77;;
43529;SDS011;55654;50.966;6.878;2022-11-04T05:51:13;15.53;;;3.90;;
43529;SDS011;55654;50.966;6.878;2022-11-04T05:53:41;8.48;;;3.50;;
43529;SDS011;55654;50.966;6.878;2022-11-04T05:56:07;7.27;;;2.70;;
43529;SDS011;55654;50.966;6.878;2022-11-04T05:58:33;13.30;;;3.37;;
43529;SDS011;55654;50.966;6.878;2022-11-04T06:03:44;17.00;;;4.30;;
43529;SDS011;55654;50.966;6.878;2022-11-04T06:06:10;14.37;;;4.30;;
43529;SDS011;55654;50.966;6.878;2022-11-04T06:08:36;10.57;;;4.33;;
43529;SDS011;55654;50.966;6.878;2022-11-04T06:11:04;14.70;;;4.20;;
43529;SDS011;55654;50.966;6.878;2022-11-04T06:13:30;9.93;;;3.70;;
43529;SDS011;55654;50.966;6.878;2022-11-04T06:15:56;14.03;;;3.90;;
43529;SDS011;55654;50.966;6.878;2022-11-04T06:18:22;13.83;;;3.87;;
43529;SDS011;55654;50.966;6.878;2022-11-04T06:20:48;13.67;;;4.23;;
43529;SDS011;55654;50.966;6.878;2022-11-04T06:23:15;21.63;;;5.40;;
43529;SDS011;55654;50.966;6.878;2022-11-04T06:25:41;15.30;;;4.63;;
43529;SDS011;55654;50.966;6.878;2022-11-04T06:28:07;9.47;;;4.03;;
43529;SDS011;55654;50.966;6.878;2022-11-04T06:30:33;12.13;;;4.07;;
43529;SDS011;55654;50.966;6.878;2022-11-04T06:33:01;13.77;;;5.03;;
43529;SDS011;55654;50.966;6.878;2022-11-04T06:35:27;12.33;;;4.27;;
43529;SDS011;55654;50.966;6.878;2022-11-04T06:37:53;14.70;;;3.47;;
43529;SDS011;55654;50.966;6.878;2022-11-04T06:40:22;14.43;;;3.97;;
43529;SDS011;55654;50.966;6.878;2022-11-04T06:42:50;17.43;;;4.53;;
43529;SDS011;55654;50.966;6.878;2022-11-04T06:45:16;8.40;;;3.27;;
43529;SDS011;55654;50.966;6.878;2022-11-04T06:47:42;10.63;;;4.27;;
43529;SDS011;55654;50.966;6.878;2022-11-04T06:50:08;17.97;;;5.00;;
43529;SDS011;55654;50.966;6.878;2022-11-04T06:52:35;17.63;;;4.80;;
43529;SDS011;55654;50.966;6.878;2022-11-04T06:55:01;22.77;;;5.00;;
43529;SDS011;55654;50.966;6.878;2022-11-04T06:57:27;9.97;;;5.07;;
43529;SDS011;55654;50.966;6.878;2022-11-04T06:59:53;14.77;;;4.67;;
43529;SDS011;55654;50.966;6.878;2022-11-04T07:02:19;36.67;;;11.70;;
43529;SDS011;55654;50.966;6.878;2022-11-04T07:04:45;246.73;;;60.23;;
43529;SDS011;55654;50.966;6.878;2022-11-04T07:07:11;323.53;;;84.50;;
43529;SDS011;55654;50.966;6.878;2022-11-04T07:09:38;103.80;;;29.20;;
43529;SDS011;55654;50.966;6.878;2022-11-04T07:12:04;57.37;;;16.53;;
43529;SDS011;55654;50.966;6.878;2022-11-04T07:14:30;18.93;;;7.23;;
43529;SDS011;55654;50.966;6.878;2022-11-04T07:16:56;16.90;;;3.83;;
43529;SDS011;55654;50.966;6.878;2022-11-04T07:19:24;12.13;;;3.43;;
43529;SDS011;55654;50.966;6.878;2022-11-04T07:21:50;7.27;;;2.50;;
43529;SDS011;55654;50.966;6.878;2022-11-04T07:24:16;7.97;;;2.57;;
43529;SDS011;55654;50.966;6.878;2022-11-04T07:26:42;8.37;;;2.20;;
43529;SDS011;55654;50.966;6.878;2022-11-04T07:29:08;7.67;;;2.80;;
43529;SDS011;55654;50.966;6.878;2022-11-04T07:31:35;6.20;;;1.80;;
43529;SDS011;55654;50.966;6.878;2022-11-04T07:34:01;11.00;;;2.37;;
43529;SDS011;55654;50.966;6.878;2022-11-04T07:36:28;13.70;;;2.87;;
43529;SDS011;55654;50.966;6.878;2022-11-04T07:38:54;9.23;;;1.80;;
43529;SDS011;55654;50.966;6.878;2022-11-04T07:41:20;9.80;;;2.40;;
43529;SDS011;55654;50.966;6.878;2022-11-04T07:43:47;12.60;;;2.20;;
43529;SDS011;55654;50.966;6.878;2022-11-04T07:46:13;8.30;;;1.83;;
43529;SDS011;55654;50.966;6.878;2022-11-04T07:48:39;5.40;;;1.67;;
43529;SDS011;55654;50.966;6.878;2022-11-04T07:51:06;6.80;;;1.57;;
43529;SDS011;55654;50.966;6.878;2022-11-04T07:53:33;9.53;;;1.67;;
43529;SDS011;55654;50.966;6.878;2022-11-04T07:56:02;9.67;;;2.87;;
43529;SDS011;55654;50.966;6.878;2022-11-04T07:58:28;9.60;;;2.53;;
43529;SDS011;55654;50.966;6.878;2022-11-04T08:00:58;10.33;;;1.90;;
43529;SDS011;55654;50.966;6.878;2022-11-04T08:03:24;11.63;;;4.37;;
43529;SDS011;55654;50.966;6.878;2022-11-04T08:06:00;7.67;;;2.77;;
43529;SDS011;55654;50.966;6.878;2022-11-04T08:08:27;7.93;;;3.07;;
43529;SDS011;55654;50.966;6.878;2022-11-04T08:10:54;10.57;;;3.13;;
43529;SDS011;55654;50.966;6.878;2022-11-04T08:13:21;10.07;;;3.20;;
43529;SDS011;55654;50.966;6.878;2022-11-04T08:15:47;5.27;;;1.73;;
43529;SDS011;55654;50.966;6.878;2022-11-04T08:18:13;9.00;;;2.37;;
43529;SDS011;55654;50.966;6.878;2022-11-04T08:20:40;9.60;;;2.53;;
43529;SDS011;55654;50.966;6.878;2022-11-04T08:23:06;12.57;;;4.10;;
43529;SDS011;55654;50.966;6.878;2022-11-04T08:25:36;6.17;;;2.40;;
43529;SDS011;55654;50.966;6.878;2022-11-04T08:28:02;6.83;;;2.10;;
43529;SDS011;55654;50.966;6.878;2022-11-04T08:30:28;8.73;;;2.20;;
43529;SDS011;55654;50.966;6.878;2022-11-04T08:32:54;6.57;;;3.03;;
43529;SDS011;55654;50.966;6.878;2022-11-04T08:35:20;10.57;;;3.37;;
43529;SDS011;55654;50.966;6.878;2022-11-04T08:37:46;17.27;;;7.57;;
43529;SDS011;55654;50.966;6.878;2022-11-04T08:40:12;11.93;;;5.37;;
43529;SDS011;55654;50.966;6.878;2022-11-04T08:42:38;9.00;;;3.30;;
43529;SDS011;55654;50.966;6.878;2022-11-04T08:45:04;9.47;;;4.03;;
43529;SDS011;55654;50.966;6.878;2022-11-04T08:47:30;16.47;;;3.80;;
43529;SDS011;55654;50.966;6.878;2022-11-04T08:49:56;6.40;;;1.90;;
43529;SDS011;55654;50.966;6.878;2022-11-04T08:52:22;11.10;;;4.47;;
43529;SDS011;55654;50.966;6.878;2022-11-04T08:54:48;7.03;;;2.97;;
43529;SDS011;55654;50.966;6.878;2022-11-04T08:57:14;7.73;;;2.70;;
43529;SDS011;55654;50.966;6.878;2022-11-04T08:59:40;7.57;;;3.53;;
43529;SDS011;55654;50.966;6.878;2022-11-04T09:02:08;12.93;;;2.60;;
43529;SDS011;55654;50.966;6.878;2022-11-04T09:04:36;12.57;;;3.50;;
43529;SDS011;55654;50.966;6.878;2022-11-04T09:07:04;7.20;;;2.90;;
43529;SDS011;55654;50.966;6.878;2022-11-04T09:09:30;12.63;;;5.07;;
43529;SDS011;55654;50.966;6.878;2022-11-04T09:11:57;12.40;;;4.00;;
43529;SDS011;55654;50.966;6.878;2022-11-04T09:14:24;10.63;;;3.73;;
43529;SDS011;55654;50.966;6.878;2022-11-04T09:16:50;9.40;;;4.00;;
43529;SDS011;55654;50.966;6.878;2022-11-04T09:19:17;6.83;;;2.90;;
43529;SDS011;55654;50.966;6.878;2022-11-04T09:21:43;8.40;;;2.70;;
43529;SDS011;55654;50.966;6.878;2022-11-04T09:24:09;10.03;;;3.63;;
43529;SDS011;55654;50.966;6.878;2022-11-04T09:26:36;10.70;;;2.77;;
43529;SDS011;55654;50.966;6.878;2022-11-04T09:29:04;9.87;;;3.33;;
43529;SDS011;55654;50.966;6.878;2022-11-04T09:31:33;8.00;;;2.37;;
43529;SDS011;55654;50.966;6.878;2022-11-04T09:33:59;7.40;;;2.67;;
43529;SDS011;55654;50.966;6.878;2022-11-04T09:36:28;13.33;;;3.27;;
43529;SDS011;55654;50.966;6.878;2022-11-04T09:38:54;8.23;;;2.37;;
43529;SDS011;55654;50.966;6.878;2022-11-04T09:46:34;22.13;;;3.77;;
43529;SDS011;55654;50.966;6.878;2022-11-04T09:49:02;11.43;;;3.17;;
43529;SDS011;55654;50.966;6.878;2022-11-04T09:51:29;9.93;;;2.63;;
43529;SDS011;55654;50.966;6.878;2022-11-04T09:54:10;7.93;;;2.20;;
43529;SDS011;55654;50.966;6.878;2022-11-04T09:56:41;8.70;;;2.13;;
43529;SDS011;55654;50.966;6.878;2022-11-04T09:59:08;11.33;;;3.20;;
43529;SDS011;55654;50.966;6.878;2022-11-04T10:01:40;6.40;;;2.93;;
43529;SDS011;55654;50.966;6.878;2022-11-04T10:04:16;6.33;;;2.70;;
43529;SDS011;55654;50.966;6.878;2022-11-04T10:22:31;4.80;;;2.27;;
43529;SDS011;55654;50.966;6.878;2022-11-04T10:27:28;7.40;;;2.07;;
43529;SDS011;55654;50.966;6.878;2022-11-04T10:30:01;11.10;;;2.40;;
43529;SDS011;55654;50.966;6.878;2022-11-04T10:34:59;11.73;;;3.10;;
43529;SDS011;55654;50.966;6.878;2022-11-04T10:37:26;7.13;;;2.40;;
43529;SDS011;55654;50.966;6.878;2022-11-04T10:39:57;7.00;;;2.67;;
43529;SDS011;55654;50.966;6.878;2022-11-04T10:42:24;10.45;;;3.40;;
43529;SDS011;55654;50.966;6.878;2022-11-04T10:44:51;7.50;;;2.10;;
43529;SDS011;55654;50.966;6.878;2022-11-04T10:47:33;9.50;;;3.10;;
43529;SDS011;55654;50.966;6.878;2022-11-04T10:52:28;10.77;;;2.47;;
43529;SDS011;55654;50.966;6.878;2022-11-04T10:54:57;6.47;;;3.00;;
43529;SDS011;55654;50.966;6.878;2022-11-04T10:57:24;11.93;;;2.63;;
43529;SDS011;55654;50.966;6.878;2022-11-04T11:02:41;13.10;;;3.33;;
43529;SDS011;55654;50.966;6.878;2022-11-04T11:07:37;9.93;;;2.30;;
43529;SDS011;55654;50.966;6.878;2022-11-04T11:10:03;8.90;;;2.63;;
43529;SDS011;55654;50.966;6.878;2022-11-04T11:12:29;9.68;;;3.78;;
43529;SDS011;55654;50.966;6.878;2022-11-04T11:15:08;8.32;;;2.67;;
43529;SDS011;55654;50.966;6.878;2022-11-04T11:17:42;8.18;;;2.22;;
43529;SDS011;55654;50.966;6.878;2022-11-04T11:22:41;7.95;;;3.00;;
43529;SDS011;55654;50.966;6.878;2022-11-04T11:27:47;8.73;;;2.13;;
43529;SDS011;55654;50.966;6.878;2022-11-04T11:30:23;7.68;;;2.55;;
43529;SDS011;55654;50.966;6.878;2022-11-04T11:32:53;6.55;;;2.10;;
43529;SDS011;55654;50.966;6.878;2022-11-04T11:35:24;6.88;;;1.88;;
43529;SDS011;55654;50.966;6.878;2022-11-04T11:37:51;7.68;;;2.40;;
43529;SDS011;55654;50.966;6.878;2022-11-04T11:40:25;5.88;;;1.67;;
43529;SDS011;55654;50.966;6.878;2022-11-04T11:42:51;10.02;;;1.90;;
43529;SDS011;55654;50.966;6.878;2022-11-04T11:45:17;5.75;;;1.88;;
43529;SDS011;55654;50.966;6.878;2022-11-04T11:47:45;5.43;;;1.58;;
43529;SDS011;55654;50.966;6.878;2022-11-04T11:52:38;4.50;;;1.65;;
43529;SDS011;55654;50.966;6.878;2022-11-04T12:00:27;2.78;;;1.10;;
43529;SDS011;55654;50.966;6.878;2022-11-04T12:13:27;8.90;;;2.33;;
43529;SDS011;55654;50.966;6.878;2022-11-04T12:23:38;5.67;;;1.33;;
43529;SDS011;55654;50.966;6.878;2022-11-04T12:41:47;7.27;;;1.10;;
43529;SDS011;55654;50.966;6.878;2022-11-04T13:00:11;1.67;;;0.60;;
43529;SDS011;55654;50.966;6.878;2022-11-04T13:07:56;3.73;;;1.13;;
43529;SDS011;55654;50.966;6.878;2022-11-04T13:10:30;4.03;;;1.17;;
43529;SDS011;55654;50.966;6.878;2022-11-04T13:12:59;6.70;;;1.30;;
43529;SDS011;55654;50.966;6.878;2022-11-04T13:15:29;9.43;;;1.47;;
43529;SDS011;55654;50.966;6.878;2022-11-04T13:17:59;3.45;;;0.98;;
43529;SDS011;55654;50.966;6.878;2022-11-04T13:22:59;5.80;;;1.30;;
43529;SDS011;55654;50.966;6.878;2022-11-04T13:25:38;4.00;;;1.70;;
43529;SDS011;55654;50.966;6.878;2022-11-04T13:28:07;6.80;;;1.70;;
43529;SDS011;55654;50.966;6.878;2022-11-04T13:30:37;3.10;;;1.07;;
43529;SDS011;55654;50.966;6.878;2022-11-04T13:38:22;5.07;;;1.20;;
43529;SDS011;55654;50.966;6.878;2022-11-04T13:43:39;5.60;;;1.50;;
43529;SDS011;55654;50.966;6.878;2022-11-04T13:48:33;6.60;;;2.30;;
43529;SDS011;55654;50.966;6.878;2022-11-04T13:51:05;4.17;;;1.30;;
43529;SDS011;55654;50.966;6.878;2022-11-04T13:53:46;6.23;;;1.47;;
43529;SDS011;55654;50.966;6.878;2022-11-04T13:58:58;6.90;;;1.77;;
43529;SDS011;55654;50.966;6.878;2022-11-04T14:01:27;4.23;;;1.10;;
43529;SDS011;55654;50.966;6.878;2022-11-04T14:04:00;4.77;;;1.50;;
43529;SDS011;55654;50.966;6.878;2022-11-04T14:14:41;7.40;;;1.93;;
43529;SDS011;55654;50.966;6.878;2022-11-04T14:22:27;8.30;;;2.17;;
43529;SDS011;55654;50.966;6.878;2022-11-04T14:24:55;7.43;;;2.17;;
43529;SDS011;55654;50.966;6.878;2022-11-04T14:27:38;18.07;;;2.37;;
43529;SDS011;55654;50.966;6.878;2022-11-04T14:30:05;8.90;;;2.17;;
43529;SDS011;55654;50.966;6.878;2022-11-04T14:32:34;11.73;;;2.00;;
43529;SDS011;55654;50.966;6.878;2022-11-04T14:35:05;9.87;;;2.07;;
43529;SDS011;55654;50.966;6.878;2022-11-04T14:37:32;5.30;;;2.07;;
43529;SDS011;55654;50.966;6.878;2022-11-04T14:40:00;9.30;;;1.90;;
43529;SDS011;55654;50.966;6.878;2022-11-04T14:45:08;12.97;;;2.63;;
43529;SDS011;55654;50.966;6.878;2022-11-04T14:47:37;11.40;;;1.97;;
43529;SDS011;55654;50.966;6.878;2022-11-04T14:50:05;8.80;;;2.40;;
43529;SDS011;55654;50.966;6.878;2022-11-04T14:55:05;11.20;;;2.33;;
43529;SDS011;55654;50.966;6.878;2022-11-04T14:57:37;12.83;;;2.30;;
43529;SDS011;55654;50.966;6.878;2022-11-04T15:02:46;7.07;;;2.20;;
43529;SDS011;55654;50.966;6.878;2022-11-04T15:05:25;6.33;;;2.80;;
43529;SDS011;55654;50.966;6.878;2022-11-04T15:07:52;11.67;;;3.07;;
43529;SDS011;55654;50.966;6.878;2022-11-04T15:10:22;11.40;;;2.97;;
43529;SDS011;55654;50.966;6.878;2022-11-04T15:12:49;13.83;;;3.43;;
43529;SDS011;55654;50.966;6.878;2022-11-04T15:15:29;10.27;;;4.07;;
43529;SDS011;55654;50.966;6.878;2022-11-04T15:17:58;15.60;;;4.40;;
43529;SDS011;55654;50.966;6.878;2022-11-04T15:20:25;12.83;;;3.60;;
43529;SDS011;55654;50.966;6.878;2022-11-04T15:25:23;13.87;;;3.53;;
43529;SDS011;55654;50.966;6.878;2022-11-04T15:27:49;14.73;;;3.87;;
43529;SDS011;55654;50.966;6.878;2022-11-04T15:30:27;12.70;;;3.27;;
43529;SDS011;55654;50.966;6.878;2022-11-04T15:35:22;15.03;;;4.00;;
43529;SDS011;55654;50.966;6.878;2022-11-04T15:37:48;12.47;;;3.43;;
43529;SDS011;55654;50.966;6.878;2022-11-04T15:40:16;11.27;;;3.90;;
43529;SDS011;55654;50.966;6.878;2022-11-04T15:42:42;18.50;;;3.73;;
43529;SDS011;55654;50.966;6.878;2022-11-04T15:50:50;11.33;;;3.30;;
43529;SDS011;55654;50.966;6.878;2022-11-04T15:53:16;10.10;;;2.97;;
43529;SDS011;55654;50.966;6.878;2022-11-04T15:55:43;11.00;;;2.93;;
43529;SDS011;55654;50.966;6.878;2022-11-04T15:58:12;14.30;;;3.30;;
43529;SDS011;55654;50.966;6.878;2022-11-04T16:00:42;18.93;;;4.00;;
43529;SDS011;55654;50.966;6.878;2022-11-04T16:03:16;8.30;;;3.13;;
43529;SDS011;55654;50.966;6.878;2022-11-04T16:05:48;11.93;;;3.50;;
43529;SDS011;55654;50.966;6.878;2022-11-04T16:08:28;15.73;;;3.70;;
43529;SDS011;55654;50.966;6.878;2022-11-04T16:11:14;11.40;;;3.13;;
43529;SDS011;55654;50.966;6.878;2022-11-04T16:13:44;14.67;;;3.33;;
43529;SDS011;55654;50.966;6.878;2022-11-04T16:16:14;9.27;;;3.27;;
43529;SDS011;55654;50.966;6.878;2022-11-04T16:18:47;9.33;;;3.07;;
43529;SDS011;55654;50.966;6.878;2022-11-04T16:24:03;14.00;;;3.70;;
43529;SDS011;55654;50.966;6.878;2022-11-04T16:26:40;9.67;;;3.20;;
43529;SDS011;55654;50.966;6.878;2022-11-04T16:29:16;11.27;;;4.37;;
43529;SDS011;55654;50.966;6.878;2022-11-04T16:31:45;14.63;;;4.00;;
43529;SDS011;55654;50.966;6.878;2022-11-04T16:34:12;14.87;;;4.27;;
43529;SDS011;55654;50.966;6.878;2022-11-04T16:36:38;17.60;;;4.67;;
43529;SDS011;55654;50.966;6.878;2022-11-04T16:39:07;18.70;;;5.47;;
43529;SDS011;55654;50.966;6.878;2022-11-04T16:41:34;18.50;;;5.50;;
43529;SDS011;55654;50.966;6.878;2022-11-04T16:44:03;14.67;;;4.00;;
43529;SDS011;55654;50.966;6.878;2022-11-04T16:46:33;16.77;;;5.03;;
43529;SDS011;55654;50.966;6.878;2022-11-04T16:48:59;12.13;;;5.00;;
43529;SDS011;55654;50.966;6.878;2022-11-04T16:51:25;14.13;;;4.83;;
43529;SDS011;55654;50.966;6.878;2022-11-04T16:53:52;9.10;;;3.80;;
43529;SDS011;55654;50.966;6.878;2022-11-04T16:56:20;16.43;;;4.53;;
43529;SDS011;55654;50.966;6.878;2022-11-04T16:58:46;16.93;;;5.30;;
43529;SDS011;55654;50.966;6.878;2022-11-04T17:01:15;20.70;;;6.90;;
43529;SDS011;55654;50.966;6.878;2022-11-04T17:03:44;17.77;;;5.22;;
43529;SDS011;55654;50.966;6.878;2022-11-04T17:06:11;15.87;;;5.43;;
43529;SDS011;55654;50.966;6.878;2022-11-04T17:08:38;13.87;;;5.03;;
43529;SDS011;55654;50.966;6.878;2022-11-04T17:11:05;14.97;;;4.97;;
43529;SDS011;55654;50.966;6.878;2022-11-04T17:13:31;17.77;;;6.13;;
43529;SDS011;55654;50.966;6.878;2022-11-04T17:16:00;19.37;;;6.50;;
43529;SDS011;55654;50.966;6.878;2022-11-04T17:18:28;19.77;;;5.63;;
43529;SDS011;55654;50.966;6.878;2022-11-04T17:20:57;19.30;;;5.77;;
43529;SDS011;55654;50.966;6.878;2022-11-04T17:23:24;14.63;;;6.00;;
43529;SDS011;55654;50.966;6.878;2022-11-04T17:25:50;12.37;;;5.57;;
43529;SDS011;55654;50.966;6.878;2022-11-04T17:28:16;18.03;;;6.33;;
43529;SDS011;55654;50.966;6.878;2022-11-04T17:30:45;12.67;;;5.20;;
43529;SDS011;55654;50.966;6.878;2022-11-04T17:33:12;15.83;;;5.93;;
43529;SDS011;55654;50.966;6.878;2022-11-04T17:35:41;16.93;;;5.47;;
43529;SDS011;55654;50.966;6.878;2022-11-04T17:38:08;16.10;;;6.83;;
43529;SDS011;55654;50.966;6.878;2022-11-04T17:40:35;21.57;;;8.13;;
43529;SDS011;55654;50.966;6.878;2022-11-04T17:43:21;20.30;;;9.27;;
43529;SDS011;55654;50.966;6.878;2022-11-04T17:46:06;19.90;;;6.90;;
43529;SDS011;55654;50.966;6.878;2022-11-04T17:48:50;21.37;;;6.93;;
43529;SDS011;55654;50.966;6.878;2022-11-04T17:51:16;18.83;;;6.77;;